Time;durP1;ratioP1;P1;durP2;ratioP2;P2;SDS_P1;SDS_P2;PMS_P1;PMS_P2;Temp;Humidity;BMP_temperature;BMP_pressure;BME280_temperature;BME280_humidity;BME280_pressure;Samples;Min_cycle;Max_cycle;Signal;HPM_P1;HPM_P2
2022/01/27 00:01:46;;;;;;;5.47;3.70;;;;;;;-3.27;70.62;99560.00;5059383;28;20021;-55
2022/01/27 00:06:38;;;;;;;8.27;4.50;;;;;;;-3.23;71.50;99570.25;5044734;28;20029;-56
2022/01/27 00:11:53;;;;;;;7.47;4.30;;;;;;;-3.16;71.74;99571.34;5054608;28;20330;-56
2022/01/27 00:14:21;;;;;;;8.55;4.53;;;;;;;-3.24;70.38;99570.22;5059290;28;20067;-56
2022/01/27 00:17:02;;;;;;;5.65;4.22;;;;;;;-3.24;71.00;99567.69;5059495;28;20029;-56
2022/01/27 00:19:28;;;;;;;6.97;4.20;;;;;;;-3.24;71.29;99562.63;5027118;28;20033;-56
2022/01/27 00:21:53;;;;;;;9.25;4.70;;;;;;;-3.24;71.16;99557.56;5061507;28;20114;-55
2022/01/27 00:24:19;;;;;;;8.20;4.20;;;;;;;-3.36;71.54;99558.88;5059839;28;20029;-55
2022/01/27 00:26:45;;;;;;;7.90;4.80;;;;;;;-3.27;71.33;99563.38;5058817;28;20035;-55
2022/01/27 00:29:11;;;;;;;7.85;4.35;;;;;;;-3.27;71.38;99555.78;5058838;28;20067;-54
2022/01/27 00:31:36;;;;;;;6.32;4.22;;;;;;;-3.30;71.53;99556.53;5057571;28;20025;-54
2022/01/27 00:34:04;;;;;;;7.43;4.30;;;;;;;-3.22;70.93;99563.50;5057401;28;20024;-55
2022/01/27 00:36:31;;;;;;;7.45;4.43;;;;;;;-3.62;70.76;99488.84;5058457;28;20248;-55
2022/01/27 00:38:57;;;;;;;7.78;4.05;;;;;;;-3.24;72.15;99558.41;5058637;28;20064;-55
2022/01/27 00:41:23;;;;;;;5.78;4.20;;;;;;;-3.21;72.00;99557.66;5058183;28;20230;-55
2022/01/27 00:43:50;;;;;;;7.82;4.20;;;;;;;-3.25;70.56;99564.31;5060085;28;20030;-55
2022/01/27 00:46:17;;;;;;;6.00;4.18;;;;;;;-3.24;72.27;99558.41;5061118;28;20029;-54
2022/01/27 00:48:45;;;;;;;5.80;4.05;;;;;;;-3.21;72.12;99565.25;5051304;28;20227;-54
2022/01/27 00:51:12;;;;;;;9.38;4.45;;;;;;;-3.24;71.38;99560.09;5044224;28;20025;-55
2022/01/27 00:53:51;;;;;;;6.32;4.47;;;;;;;-3.23;71.60;99557.59;5055886;28;20062;-54
2022/01/27 00:59:03;;;;;;;7.32;4.30;;;;;;;-3.36;70.83;99551.28;5053372;28;20060;-56
2022/01/27 01:01:35;;;;;;;8.73;4.68;;;;;;;-3.33;72.27;99550.53;5047409;28;20033;-56
2022/01/27 01:04:04;;;;;;;;;;;;;;;-3.28;71.53;99559.13;5053017;28;20029;-55
2022/01/27 01:06:46;;;;;;;8.23;4.80;;;;;;;-3.23;72.42;99552.53;5051595;28;20204;-55
2022/01/27 01:29:56;;;;;;;7.18;4.93;;;;;;;-3.12;72.43;99548.69;5026640;28;20025;-54
2022/01/27 01:32:42;;;;;;;8.38;5.03;;;;;;;-3.19;71.48;99543.34;5025790;28;20075;-54
2022/01/27 01:35:09;;;;;;;9.10;5.15;;;;;;;-3.18;71.21;99538.38;5042836;28;20029;-56
2022/01/27 01:37:42;;;;;;;12.32;5.15;;;;;;;-3.25;69.05;99540.63;5060163;28;20029;-55
2022/01/27 01:40:14;;;;;;;7.10;4.00;;;;;;;-3.34;69.59;99529.41;5059203;28;20036;-55
2022/01/27 01:42:41;;;;;;;5.90;4.40;;;;;;;-3.35;70.43;99537.81;5043593;28;20348;-55
2022/01/27 01:45:11;;;;;;;6.55;4.22;;;;;;;-3.39;70.07;99525.00;5056694;28;20222;-55
2022/01/27 01:47:38;;;;;;;6.07;4.13;;;;;;;-3.38;69.50;99545.28;5057922;28;20059;-54
2022/01/27 01:50:06;;;;;;;6.07;4.60;;;;;;;-3.72;70.64;99478.44;5048084;28;20454;-54
2022/01/27 01:52:32;;;;;;;6.32;4.18;;;;;;;-3.36;69.99;99533.56;5050931;28;20024;-55
2022/01/27 01:54:58;;;;;;;7.20;4.38;;;;;;;-3.37;70.99;99528.47;5057811;28;20146;-55
2022/01/27 01:57:23;;;;;;;4.88;3.95;;;;;;;-3.28;71.17;99522.81;5053896;28;20028;-55
2022/01/27 01:59:49;;;;;;;4.95;3.95;;;;;;;-3.25;71.87;99527.97;5055316;28;20088;-55
2022/01/27 02:02:15;;;;;;;7.57;4.20;;;;;;;-3.26;69.98;99531.31;5057410;28;20022;-55
2022/01/27 02:04:42;;;;;;;6.57;4.43;;;;;;;-3.40;69.15;99549.47;5041319;28;20265;-55
2022/01/27 02:07:27;;;;;;;5.03;4.05;;;;;;;-3.45;69.63;99519.75;5059875;28;20099;-55
2022/01/27 02:18:07;;;;;;;6.70;4.53;;;;;;;-3.36;70.74;99515.84;5091465;28;20047;-55
2022/01/27 02:20:35;;;;;;;6.30;4.43;;;;;;;-3.30;71.80;99518.56;5059558;28;20033;-54
2022/01/27 02:23:05;;;;;;;8.18;4.57;;;;;;;-3.37;72.43;99506.53;5052049;28;20026;-55
2022/01/27 02:25:30;;;;;;;6.35;4.50;;;;;;;-3.31;71.57;99514.31;5047059;28;20037;-55
2022/01/27 02:27:57;;;;;;;5.63;4.40;;;;;;;-3.34;70.70;99526.00;5057199;28;20029;-55
2022/01/27 02:30:24;;;;;;;5.50;4.15;;;;;;;-3.37;70.92;99519.19;5061197;28;20036;-55
2022/01/27 02:32:54;;;;;;;6.72;4.70;;;;;;;-3.45;69.83;99525.66;5058639;28;20024;-55
2022/01/27 02:35:25;;;;;;;5.95;4.45;;;;;;;-3.87;68.92;99467.81;5051061;28;20134;-55
2022/01/27 02:37:51;;;;;;;7.10;3.83;;;;;;;-3.58;71.23;99519.34;5060973;28;20025;-55
2022/01/27 02:40:26;;;;;;;4.88;3.65;;;;;;;-3.47;70.94;99529.81;5059299;28;20238;-55
2022/01/27 02:42:53;;;;;;;10.45;4.43;;;;;;;-3.45;72.07;99530.72;5046616;28;20099;-56
2022/01/27 02:45:27;;;;;;;5.57;3.67;;;;;;;-3.42;71.95;99524.91;5045633;28;20247;-55
2022/01/27 02:47:52;;;;;;;4.30;2.92;;;;;;;-3.40;69.10;99519.09;5062834;28;20376;-55
2022/01/27 02:50:18;;;;;;;4.25;2.80;;;;;;;-3.42;69.89;99505.53;5063086;28;20132;-56
2022/01/27 02:52:44;;;;;;;4.65;2.70;;;;;;;-3.39;65.94;99525.00;5059646;28;20143;-55
2022/01/27 02:55:10;;;;;;;4.28;2.30;;;;;;;-3.65;65.01;99525.00;5058482;28;20029;-55
2022/01/27 02:57:37;;;;;;;4.22;2.10;;;;;;;-3.91;65.86;99514.88;5058162;28;20056;-55
2022/01/27 03:00:04;;;;;;;3.72;1.98;;;;;;;-3.93;64.78;99523.22;5060684;28;20229;-56
2022/01/27 03:02:30;;;;;;;2.22;2.00;;;;;;;-3.75;66.91;99513.72;5060172;28;20202;-56
2022/01/27 03:04:55;;;;;;;3.88;2.00;;;;;;;-3.77;65.92;99499.34;5057156;28;20033;-56
2022/01/27 03:07:21;;;;;;;3.08;1.73;;;;;;;-3.84;63.81;99518.50;5043755;28;20033;-56
2022/01/27 03:09:46;;;;;;;3.15;1.70;;;;;;;-3.75;64.47;99503.59;5045063;28;20072;-55
2022/01/27 03:12:13;;;;;;;3.95;1.65;;;;;;;-3.68;65.34;99504.69;5062494;28;20040;-55
2022/01/27 03:14:40;;;;;;;2.38;1.70;;;;;;;-3.55;64.48;99543.91;5043845;28;20044;-55
2022/01/27 03:17:08;;;;;;;3.45;1.80;;;;;;;-3.66;63.73;99508.97;5060254;28;20356;-55
2022/01/27 03:19:35;;;;;;;3.28;1.65;;;;;;;-3.79;62.78;99511.06;5047260;28;20220;-55
2022/01/27 03:22:02;;;;;;;3.47;1.75;;;;;;;-3.78;61.17;99510.25;5045792;28;20060;-55
2022/01/27 03:24:29;;;;;;;3.78;1.70;;;;;;;-3.75;62.14;99496.03;5036694;28;20222;-55
2022/01/27 03:26:55;;;;;;;2.35;1.75;;;;;;;-3.64;63.57;99507.34;5053096;28;20033;-55
2022/01/27 03:29:21;;;;;;;2.25;1.90;;;;;;;-3.59;65.26;99504.13;5049356;28;20092;-55
2022/01/27 03:31:47;;;;;;;2.38;1.90;;;;;;;-3.53;65.94;99514.44;5059863;28;20090;-55
2022/01/27 03:34:14;;;;;;;2.65;1.92;;;;;;;-3.46;65.62;99513.84;5050117;28;20187;-55
2022/01/27 03:36:40;;;;;;;2.38;1.77;;;;;;;-3.54;63.58;99513.56;5061781;28;20060;-55
2022/01/27 03:39:08;;;;;;;2.17;1.58;;;;;;;-3.52;64.52;99509.44;5044428;28;20033;-55
2022/01/27 03:41:35;;;;;;;2.65;1.80;;;;;;;-3.60;64.30;99515.06;5044334;28;20342;-54
2022/01/27 03:44:03;;;;;;;4.38;2.00;;;;;;;-3.76;63.80;99493.44;5058282;28;20044;-55
2022/01/27 03:46:28;;;;;;;2.60;1.98;;;;;;;-3.54;64.35;99502.59;5046352;28;20040;-55
2022/01/27 03:48:55;;;;;;;3.00;1.80;;;;;;;-3.50;63.77;99502.75;5055269;28;20025;-58
2022/01/27 03:51:21;;;;;;;3.50;2.17;;;;;;;-3.49;64.94;99493.50;5050696;28;20207;-57
2022/01/27 03:53:46;;;;;;;2.90;2.10;;;;;;;-3.52;64.85;99490.84;5050873;28;20028;-56
2022/01/27 03:56:12;;;;;;;3.20;1.90;;;;;;;-3.45;65.46;99491.91;5056742;28;20195;-55
2022/01/27 03:58:38;;;;;;;2.40;1.77;;;;;;;-3.48;64.80;99475.81;5046273;28;20024;-55
2022/01/27 04:01:04;;;;;;;3.72;2.08;;;;;;;-3.50;63.17;99486.72;5060637;28;20025;-55
2022/01/27 04:03:32;;;;;;;3.42;1.95;;;;;;;-3.64;65.07;99474.44;5044288;28;20049;-55
2022/01/27 04:06:05;;;;;;;5.53;2.10;;;;;;;-3.46;65.77;99486.00;5061104;28;20447;-55
2022/01/27 04:08:31;;;;;;;4.72;2.10;;;;;;;-3.52;65.29;99491.72;5059037;28;20103;-56
2022/01/27 04:10:57;;;;;;;3.22;2.53;;;;;;;-3.46;64.74;99483.47;5058124;28;20060;-56
2022/01/27 04:13:23;;;;;;;2.80;1.80;;;;;;;-3.49;64.33;99494.34;5059120;28;20127;-55
2022/01/27 04:15:48;;;;;;;1.92;1.80;;;;;;;-3.59;64.41;99491.47;5058894;28;20039;-56
2022/01/27 04:18:14;;;;;;;3.20;1.80;;;;;;;-3.62;66.79;99466.91;5059114;28;20033;-56
2022/01/27 04:20:41;;;;;;;2.30;1.90;;;;;;;-3.70;65.25;99478.47;5057721;28;20236;-56
2022/01/27 04:23:08;;;;;;;2.30;2.10;;;;;;;-3.60;66.69;99479.63;5059045;28;20031;-55
2022/01/27 04:25:35;;;;;;;2.15;1.85;;;;;;;-3.60;67.74;99482.16;5058749;28;20032;-56
2022/01/27 04:28:05;;;;;;;3.08;2.15;;;;;;;-3.72;67.41;99480.09;5059547;28;20033;-56
2022/01/27 04:30:31;;;;;;;2.53;2.20;;;;;;;-3.74;66.91;99479.19;5043966;28;20080;-56
2022/01/27 04:32:59;;;;;;;3.50;1.83;;;;;;;-3.69;67.18;99468.41;5058058;28;20079;-55
2022/01/27 04:35:28;;;;;;;3.15;1.90;;;;;;;-3.85;65.75;99472.13;5044823;28;20045;-56
2022/01/27 04:45:48;;;;;;;3.45;2.15;;;;;;;-3.70;65.97;99461.63;5043913;28;20048;-56
2022/01/27 04:48:17;;;;;;;2.10;1.90;;;;;;;-3.81;65.43;99462.94;5042580;28;20338;-55
2022/01/27 04:50:43;;;;;;;2.53;1.90;;;;;;;-4.00;63.94;99469.06;5044319;28;20029;-56
2022/01/27 04:53:16;;;;;;;3.72;1.70;;;;;;;-4.07;63.45;99468.00;5041532;28;20058;-57
2022/01/27 04:55:42;;;;;;;3.10;2.08;;;;;;;-4.05;65.17;99461.31;5041434;28;20021;-57
2022/01/27 04:58:15;;;;;;;1.75;1.40;;;;;;;-3.99;63.83;99471.66;5043223;28;20020;-57
2022/01/27 05:00:42;;;;;;;2.10;1.50;;;;;;;-4.06;64.42;99467.19;5040709;28;20045;-57
2022/01/27 05:03:22;;;;;;;3.58;1.70;;;;;;;-4.02;63.05;99463.09;5030712;28;20033;-58
2022/01/27 05:05:48;;;;;;;4.77;1.60;;;;;;;-4.09;63.57;99459.50;5043882;28;20314;-58
2022/01/27 05:08:18;;;;;;;2.45;1.75;;;;;;;-3.97;64.12;99470.84;5042889;28;20112;-58
2022/01/27 05:10:58;;;;;;;2.90;1.45;;;;;;;-4.08;63.40;99466.28;5043395;28;20037;-57
2022/01/27 05:13:26;;;;;;;2.10;1.38;;;;;;;-4.16;61.97;99465.19;5060025;28;20040;-56
2022/01/27 05:15:52;;;;;;;1.70;1.50;;;;;;;-4.01;63.60;99464.81;5042652;28;20033;-58
2022/01/27 05:18:17;;;;;;;1.45;1.30;;;;;;;-4.04;61.93;99469.78;5052401;28;20088;-58
2022/01/27 05:20:43;;;;;;;3.30;1.30;;;;;;;-4.02;62.50;99473.19;5053375;28;20328;-57
2022/01/27 05:23:10;;;;;;;3.33;1.17;;;;;;;-3.97;62.03;99479.28;5057540;28;20025;-58
2022/01/27 05:25:36;;;;;;;3.42;1.20;;;;;;;-4.05;62.93;99471.41;5057286;28;20101;-58
2022/01/27 05:28:01;;;;;;;2.17;1.50;;;;;;;-4.04;63.11;99467.25;5054571;28;20025;-57
2022/01/27 05:30:27;;;;;;;2.40;1.63;;;;;;;-4.02;61.67;99471.56;5043663;28;20029;-58
2022/01/27 05:32:52;;;;;;;1.65;1.13;;;;;;;-4.02;63.96;99478.25;5041744;28;20080;-57
2022/01/27 05:35:18;;;;;;;1.83;1.30;;;;;;;-3.97;64.52;99469.16;5060078;28;20032;-57
2022/01/27 05:37:44;;;;;;;2.70;1.25;;;;;;;-4.00;62.58;99469.06;5060220;28;20179;-58
2022/01/27 05:40:10;;;;;;;2.03;1.20;;;;;;;-4.16;59.96;99466.03;5057696;28;20037;-58
2022/01/27 05:42:35;;;;;;;1.33;1.20;;;;;;;-3.94;62.40;99469.25;5056939;28;20074;-58
2022/01/27 05:45:01;;;;;;;2.00;1.17;;;;;;;-4.02;63.22;99466.50;5042603;28;20341;-58
2022/01/27 05:47:28;;;;;;;3.33;1.30;;;;;;;-4.03;63.13;99476.56;5038013;28;20092;-58
2022/01/27 05:49:54;;;;;;;1.48;1.30;;;;;;;-4.21;62.10;99465.00;5043166;28;20322;-58
2022/01/27 05:52:21;;;;;;;1.95;1.30;;;;;;;-4.19;63.22;99462.50;5057311;28;20343;-57
2022/01/27 05:54:47;;;;;;;3.10;1.30;;;;;;;-4.09;63.68;99464.56;5044070;28;20029;-57
2022/01/27 05:57:13;;;;;;;2.60;1.60;;;;;;;-4.00;62.39;99464.00;5054888;28;20056;-58
2022/01/27 05:59:40;;;;;;;6.93;3.85;;;;;;;-4.06;63.81;99459.63;5046520;28;20092;-58
2022/01/27 06:02:06;;;;;;;2.22;1.30;;;;;;;-4.19;62.22;99462.50;5062431;28;20085;-58
2022/01/27 06:04:31;;;;;;;1.58;1.30;;;;;;;-4.31;62.35;99452.00;5062251;28;20033;-58
2022/01/27 06:06:57;;;;;;;3.22;1.50;;;;;;;-4.18;63.32;99456.66;5060179;28;20029;-58
2022/01/27 06:09:23;;;;;;;1.58;1.38;;;;;;;-4.22;63.98;99454.84;5061361;28;20032;-58
2022/01/27 06:11:48;;;;;;;1.75;1.23;;;;;;;-4.24;61.87;99451.41;5060167;28;20035;-58
2022/01/27 06:14:14;;;;;;;1.05;1.02;;;;;;;-4.27;63.08;99456.38;5051523;28;20033;-58
2022/01/27 06:16:39;;;;;;;3.10;1.30;;;;;;;-4.22;62.96;99455.72;5037434;28;20068;-58
2022/01/27 06:19:07;;;;;;;2.65;1.40;;;;;;;-4.36;62.16;99449.28;5046874;28;20020;-58
2022/01/27 06:21:35;;;;;;;2.08;1.30;;;;;;;-4.25;63.94;99453.06;5046096;28;20038;-57
2022/01/27 06:24:01;;;;;;;1.50;1.25;;;;;;;-4.40;63.79;99445.81;5063298;28;20036;-57
2022/01/27 06:26:28;;;;;;;2.00;1.20;;;;;;;-4.28;62.74;99444.53;5044736;28;20072;-57
2022/01/27 06:28:53;;;;;;;2.78;1.25;;;;;;;-4.19;64.10;99445.69;5045372;28;20037;-58
2022/01/27 06:31:19;;;;;;;1.52;1.33;;;;;;;-4.13;64.54;99442.53;5046075;28;20063;-57
2022/01/27 06:33:44;;;;;;;1.55;1.30;;;;;;;-4.07;64.43;99440.19;5045287;28;20074;-58
2022/01/27 06:36:10;;;;;;;2.13;1.50;;;;;;;-4.14;61.90;99433.19;5044958;28;20030;-57
2022/01/27 06:38:35;;;;;;;2.83;1.40;;;;;;;-4.06;64.55;99435.97;5044027;28;20025;-57
2022/01/27 06:41:01;;;;;;;2.85;1.70;;;;;;;-4.19;63.98;99435.59;5044171;28;20216;-58
2022/01/27 06:43:27;;;;;;;6.70;1.40;;;;;;;-4.20;63.06;99425.44;5044629;28;20037;-57
2022/01/27 06:45:52;;;;;;;3.28;1.60;;;;;;;-4.08;62.66;99430.88;5045052;28;20036;-57
2022/01/27 06:48:18;;;;;;;2.45;1.42;;;;;;;-4.03;63.07;99436.94;5043047;28;20021;-57
2022/01/27 06:50:45;;;;;;;2.72;1.60;;;;;;;-4.16;62.35;99428.09;5047012;28;20311;-57
2022/01/27 06:53:10;;;;;;;4.18;1.60;;;;;;;-4.01;63.89;99425.19;5043616;28;20037;-58
2022/01/27 06:55:38;;;;;;;1.83;1.17;;;;;;;-3.92;61.80;99436.44;5044755;28;20235;-57
2022/01/27 06:58:03;;;;;;;2.05;1.45;;;;;;;-3.89;63.17;99434.00;5045841;28;20029;-58
2022/01/27 07:00:29;;;;;;;1.30;1.20;;;;;;;-4.08;61.94;99442.66;5045466;28;20021;-58
2022/01/27 07:02:55;;;;;;;2.92;1.17;;;;;;;-3.84;64.96;99440.06;5044708;28;20041;-58
2022/01/27 07:05:20;;;;;;;2.70;1.52;;;;;;;-3.98;61.31;99437.09;5044883;28;20029;-57
2022/01/27 07:07:46;;;;;;;3.20;1.42;;;;;;;-4.14;63.19;99439.94;5043410;28;20025;-57
2022/01/27 07:10:11;;;;;;;3.05;1.48;;;;;;;-4.33;63.83;99439.31;5044964;28;20029;-57
2022/01/27 07:12:43;;;;;;;1.77;1.63;;;;;;;-4.12;63.16;99439.16;5043541;28;20496;-58
2022/01/27 07:15:09;;;;;;;3.35;1.73;;;;;;;-4.16;63.08;99434.84;5060989;28;20096;-57
2022/01/27 07:17:35;;;;;;;3.28;1.35;;;;;;;-4.07;62.70;99436.81;5045156;28;20037;-57
2022/01/27 07:20:00;;;;;;;3.75;1.27;;;;;;;-4.21;62.27;99441.41;5059947;28;20331;-56
2022/01/27 07:22:26;;;;;;;3.50;1.90;;;;;;;-4.11;62.80;99438.34;5060028;28;20025;-56
2022/01/27 07:24:51;;;;;;;2.40;1.40;;;;;;;-3.88;63.08;99438.25;5059879;28;20119;-56
2022/01/27 07:27:17;;;;;;;2.88;1.80;;;;;;;-3.87;62.58;99445.91;5058323;28;20214;-56
2022/01/27 07:29:44;;;;;;;4.93;1.67;;;;;;;-4.01;62.21;99447.13;5059303;28;20032;-56
2022/01/27 07:32:09;;;;;;;3.25;1.60;;;;;;;-4.04;61.56;99450.41;5058880;28;20037;-56
2022/01/27 07:34:35;;;;;;;2.58;1.52;;;;;;;-4.18;62.62;99438.97;5048614;28;20025;-56
2022/01/27 07:37:02;;;;;;;4.65;1.70;;;;;;;-4.44;63.78;99431.34;5045361;28;20033;-56
2022/01/27 07:39:28;;;;;;;3.13;1.65;;;;;;;-4.38;62.27;99426.50;5043803;28;20172;-56
2022/01/27 07:41:56;;;;;;;2.63;1.52;;;;;;;-4.49;63.11;99452.22;5046699;28;20047;-55
2022/01/27 07:44:22;;;;;;;2.40;1.77;;;;;;;-4.28;63.83;99434.41;5039439;28;20040;-56
2022/01/27 07:46:47;;;;;;;1.75;1.52;;;;;;;-4.22;62.88;99438.00;5043326;28;20037;-56
2022/01/27 07:49:13;;;;;;;3.10;1.92;;;;;;;-4.15;63.89;99441.59;5044954;28;20254;-57
2022/01/27 07:51:38;;;;;;;2.90;2.17;;;;;;;-4.13;62.94;99429.88;5045196;28;20030;-57
2022/01/27 07:54:04;;;;;;;2.05;1.85;;;;;;;-4.12;62.70;99439.16;5043966;28;20091;-57
2022/01/27 07:56:30;;;;;;;2.30;1.55;;;;;;;-4.30;62.80;99441.94;5048217;28;20025;-56
2022/01/27 07:58:55;;;;;;;3.70;1.63;;;;;;;-4.32;62.88;99441.00;5058315;28;20021;-56
2022/01/27 08:01:21;;;;;;;2.22;1.85;;;;;;;-4.30;63.17;99438.53;5059688;28;20191;-56
2022/01/27 08:03:47;;;;;;;2.67;1.60;;;;;;;-4.57;61.46;99440.19;5061706;28;20043;-56
2022/01/27 08:06:12;;;;;;;2.33;1.75;;;;;;;-4.42;62.82;99444.03;5045384;28;20044;-57
2022/01/27 08:08:38;;;;;;;2.55;1.85;;;;;;;-4.43;63.35;99442.31;5059186;28;20028;-57
2022/01/27 08:11:04;;;;;;;7.72;2.13;;;;;;;-4.59;63.18;99434.22;5047210;28;20033;-56
2022/01/27 08:13:30;;;;;;;3.40;2.25;;;;;;;-4.42;63.06;99426.34;5054423;28;20048;-57
2022/01/27 08:15:55;;;;;;;2.25;1.83;;;;;;;-4.34;64.47;99430.84;5058414;28;20466;-56
2022/01/27 08:18:21;;;;;;;2.58;2.00;;;;;;;-4.33;64.08;99429.22;5048216;28;20037;-57
2022/01/27 08:20:47;;;;;;;4.32;2.10;;;;;;;-4.38;64.59;99407.97;5047405;28;20032;-57
2022/01/27 08:23:16;;;;;;;1.90;1.60;;;;;;;-4.62;63.92;99426.50;5054414;28;20026;-56
2022/01/27 08:25:47;;;;;;;3.78;1.90;;;;;;;-4.64;63.64;99422.22;5058093;28;20306;-59
2022/01/27 08:28:27;;;;;;;4.45;1.95;;;;;;;-4.38;64.71;99416.38;5043519;28;20033;-57
2022/01/27 08:30:54;;;;;;;3.50;1.88;;;;;;;-4.23;64.58;99431.22;5050545;28;20041;-58
2022/01/27 08:33:20;;;;;;;4.15;2.28;;;;;;;-4.28;63.55;99401.56;5054888;28;20030;-57
2022/01/27 08:35:46;;;;;;;4.40;2.28;;;;;;;-4.31;63.00;99425.06;5059386;28;20096;-57
2022/01/27 08:38:13;;;;;;;3.88;2.05;;;;;;;-4.29;62.82;99420.03;5043098;28;20037;-57
2022/01/27 08:40:39;;;;;;;4.72;1.95;;;;;;;-4.66;63.14;99408.69;5044018;28;20313;-58
2022/01/27 08:43:06;;;;;;;3.70;2.30;;;;;;;-4.29;63.06;99420.03;5050407;28;20053;-58
2022/01/27 08:45:31;;;;;;;3.78;1.98;;;;;;;-4.34;63.87;99415.69;5052210;28;20037;-58
2022/01/27 08:47:58;;;;;;;2.83;1.85;;;;;;;-4.38;63.12;99395.31;5044045;28;20103;-57
2022/01/27 08:50:25;;;;;;;3.58;2.05;;;;;;;-4.25;63.04;99399.97;5042297;28;20025;-58
2022/01/27 08:52:51;;;;;;;6.13;2.05;;;;;;;-4.26;61.99;99404.97;5042042;28;20242;-58
2022/01/27 08:55:17;;;;;;;3.53;2.22;;;;;;;-4.29;65.06;99397.28;5042193;28;20025;-57
2022/01/27 08:57:43;;;;;;;2.88;1.70;;;;;;;-4.31;62.13;99396.41;5042400;28;20025;-57
2022/01/27 09:00:11;;;;;;;3.60;2.00;;;;;;;-4.09;63.04;99403.88;5041044;28;20091;-58
2022/01/27 09:02:36;;;;;;;4.07;1.98;;;;;;;-4.22;61.10;99391.63;5042888;28;20330;-58
2022/01/27 09:05:04;;;;;;;7.13;2.10;;;;;;;-3.94;62.34;99390.00;5042977;28;20063;-59
2022/01/27 09:07:29;;;;;;;4.47;1.98;;;;;;;-3.86;61.29;99378.47;5041704;28;20045;-58
2022/01/27 09:09:55;;;;;;;4.13;2.30;;;;;;;-3.83;61.84;99387.00;5043652;28;20029;-58
2022/01/27 09:12:21;;;;;;;7.47;2.45;;;;;;;-3.83;60.78;99402.19;5041698;28;20127;-57
2022/01/27 09:14:46;;;;;;;4.65;2.40;;;;;;;-4.27;60.90;99395.69;5040611;28;20029;-57
2022/01/27 09:17:13;;;;;;;2.92;2.20;;;;;;;-3.99;61.84;99389.84;5043147;28;20229;-58
2022/01/27 09:19:41;;;;;;;4.03;2.20;;;;;;;-3.90;61.47;99389.31;5049452;28;20076;-56
2022/01/27 09:22:13;;;;;;;2.88;1.80;;;;;;;-4.34;62.52;99309.53;5041078;28;20030;-58
2022/01/27 09:24:51;;;;;;;3.85;2.20;;;;;;;-4.25;62.32;99310.66;5040954;28;20310;-58
2022/01/27 09:27:18;;;;;;;4.03;2.38;;;;;;;-3.77;62.27;99383.81;5041822;28;20164;-58
2022/01/27 09:29:45;;;;;;;4.97;2.30;;;;;;;-3.97;62.92;99377.28;5042210;28;20052;-59
2022/01/27 09:32:11;;;;;;;2.75;2.10;;;;;;;-3.95;63.05;99370.59;5039229;28;20041;-57
2022/01/27 09:34:37;;;;;;;4.00;2.15;;;;;;;-3.81;62.06;99376.94;5041049;28;20315;-58
2022/01/27 09:37:03;;;;;;;2.38;1.88;;;;;;;-4.13;61.14;99386.91;5040826;28;20072;-57
2022/01/27 09:39:31;;;;;;;4.93;2.08;;;;;;;-4.19;61.92;99366.44;5040918;28;20037;-58
2022/01/27 09:41:58;;;;;;;2.72;2.05;;;;;;;-3.93;62.39;99379.06;5041462;28;20052;-57
2022/01/27 09:44:28;;;;;;;2.97;2.60;;;;;;;-3.72;64.96;99379.75;5041585;28;20057;-57
2022/01/27 09:46:57;;;;;;;4.72;2.22;;;;;;;-3.69;62.16;99382.38;5042736;28;20591;-58
2022/01/27 09:49:31;;;;;;;6.10;2.40;;;;;;;-3.65;61.85;99371.53;5042711;28;20029;-57
2022/01/27 09:51:57;;;;;;;2.60;2.33;;;;;;;-3.61;62.43;99384.28;5041600;28;20049;-57
2022/01/27 09:54:23;;;;;;;5.22;2.50;;;;;;;-3.55;63.46;99387.00;5042082;28;20357;-58
2022/01/27 09:57:54;;;;;;;3.70;2.50;;;;;;;-3.41;64.46;99373.06;5087640;27;1407168;-57
2022/01/27 10:00:21;;;;;;;2.67;2.40;;;;;;;-3.55;61.73;99381.94;5002611;28;63206;-58
2022/01/27 10:03:16;;;;;;;4.75;2.65;;;;;;;-3.48;62.71;99372.06;4993484;28;20060;-59
2022/01/27 10:05:43;;;;;;;2.90;2.22;;;;;;;-3.97;62.45;99301.41;5073458;28;20044;-58
2022/01/27 10:08:15;;;;;;;6.25;3.08;;;;;;;-3.57;62.47;99374.28;5074655;28;20036;-58
2022/01/27 10:10:43;;;;;;;3.78;2.30;;;;;;;-3.74;64.10;99325.72;5035962;28;20049;-58
2022/01/27 10:13:11;;;;;;;5.20;2.45;;;;;;;-3.42;63.24;99375.56;5097119;28;20091;-57
2022/01/27 10:15:40;;;;;;;4.97;2.38;;;;;;;-3.87;63.37;99381.81;5071675;28;20051;-58
2022/01/27 10:19:54;;;;;;;3.90;2.50;;;;;;;-3.72;63.02;99371.28;5072619;27;20370;-58
2022/01/27 10:22:20;;;;;;;3.92;2.35;;;;;;;-3.78;63.10;99369.44;5058329;28;20037;-57
2022/01/27 10:24:59;;;;;;;3.55;2.80;;;;;;;-3.57;64.79;99353.19;5051058;28;20029;-58
2022/01/27 10:27:55;;;;;;;3.47;2.28;;;;;;;-3.37;63.47;99361.38;5049373;28;20060;-58
2022/01/27 10:32:55;;;;;;;3.67;2.50;;;;;;;-3.52;62.66;99382.91;5059641;28;20033;-58
2022/01/27 10:35:25;;;;;;;3.30;2.70;;;;;;;-3.44;62.15;99340.09;5041969;28;20100;-58
2022/01/27 10:38:10;;;;;;;5.75;2.70;;;;;;;-3.69;63.68;99344.44;5058787;28;20025;-58
2022/01/27 10:40:44;;;;;;;4.10;2.30;;;;;;;-3.65;63.38;99310.81;5057533;28;20025;-59
2022/01/27 10:43:16;;;;;;;2.22;1.90;;;;;;;-3.81;63.30;99334.78;5057344;28;20170;-59
2022/01/27 10:46:29;;;;;;;2.60;2.10;;;;;;;-3.48;64.15;99338.28;5047856;28;20040;-58
2022/01/27 10:51:26;;;;;;;3.28;1.83;;;;;;;-3.81;64.07;99328.88;5050519;28;20390;-59
2022/01/27 10:53:59;;;;;;;4.77;2.40;;;;;;;-3.59;64.64;99343.03;5046280;28;20029;-58
2022/01/27 10:56:27;;;;;;;2.20;1.77;;;;;;;-3.86;62.54;99262.13;5048671;28;20246;-58
2022/01/27 10:58:55;;;;;;;5.32;2.22;;;;;;;-3.54;62.96;99348.22;5050287;28;20037;-59
2022/01/27 11:01:26;;;;;;;3.53;2.20;;;;;;;-3.45;62.81;99328.22;5053992;28;20025;-59
2022/01/27 11:03:53;;;;;;;2.45;2.00;;;;;;;-3.56;61.59;99329.59;5053685;28;20026;-59
2022/01/27 11:06:23;;;;;;;5.78;2.53;;;;;;;-3.57;61.98;99335.50;5054437;28;20064;-59
2022/01/27 11:08:49;;;;;;;2.83;2.17;;;;;;;-3.58;60.91;99323.63;5052134;28;20144;-58
2022/01/27 11:11:14;;;;;;;4.60;2.55;;;;;;;-3.56;63.25;99314.41;5055116;28;20365;-58
2022/01/27 11:13:43;;;;;;;4.22;2.50;;;;;;;-3.51;61.40;99307.81;5052062;28;20230;-59
2022/01/27 11:16:13;;;;;;;3.15;2.08;;;;;;;-3.52;61.45;99295.97;5056053;28;20090;-59
2022/01/27 11:18:39;;;;;;;7.05;2.58;;;;;;;-3.58;61.26;99305.94;5046832;28;20048;-58
2022/01/27 11:21:12;;;;;;;5.38;2.65;;;;;;;-3.41;62.63;99292.06;5030669;28;20057;-57
2022/01/27 11:26:12;;;;;;;6.00;2.40;;;;;;;-3.48;63.46;99298.66;5029135;28;20054;-58
2022/01/27 11:28:43;;;;;;;5.35;2.35;;;;;;;-3.81;63.12;99237.81;5030265;28;20037;-58
2022/01/27 11:31:21;;;;;;;5.57;2.90;;;;;;;-3.34;63.46;99301.56;5019432;28;20026;-58
2022/01/27 11:34:01;;;;;;;3.63;2.22;;;;;;;-3.37;62.13;99296.41;5021994;28;20038;-58
2022/01/27 11:36:29;;;;;;;4.28;2.10;;;;;;;-3.50;60.86;99289.28;5024616;28;20025;-59
2022/01/27 11:38:55;;;;;;;2.75;2.10;;;;;;;-3.39;62.95;99293.00;5019021;28;20041;-58
2022/01/27 11:41:47;;;;;;;3.65;1.90;;;;;;;-3.45;60.47;99299.53;5024769;28;20037;-59
2022/01/27 11:44:22;;;;;;;2.22;1.90;;;;;;;-3.64;60.94;99294.78;5013783;28;20259;-59
2022/01/27 11:47:11;;;;;;;4.32;2.50;;;;;;;-3.48;62.41;99283.47;5016001;28;20038;-58
2022/01/27 11:50:01;;;;;;;9.40;2.65;;;;;;;-4.08;61.61;99223.53;5015499;28;20077;-58
2022/01/27 11:52:33;;;;;;;2.20;2.00;;;;;;;-3.72;62.55;99288.69;5019358;28;20034;-58
2022/01/27 11:55:23;;;;;;;2.83;2.50;;;;;;;-3.50;63.85;99282.56;5015259;28;20044;-58
2022/01/27 11:57:53;;;;;;;2.80;1.98;;;;;;;-3.63;63.64;99283.03;5021523;28;20065;-59
2022/01/27 12:00:22;;;;;;;3.75;2.67;;;;;;;-3.58;63.09;99268.81;5024309;28;20258;-58
2022/01/27 12:02:57;;;;;;;6.88;2.95;;;;;;;-3.53;63.08;99285.00;5024084;28;20315;-59
2022/01/27 12:05:26;;;;;;;5.93;2.63;;;;;;;-3.61;62.28;99273.78;5016824;28;20041;-58
2022/01/27 12:08:20;;;;;;;3.67;2.13;;;;;;;-3.65;62.26;99270.34;5023644;28;20057;-57
2022/01/27 12:10:51;;;;;;;4.40;2.30;;;;;;;-3.62;63.05;99289.78;5019507;28;20045;-59
2022/01/27 12:13:27;;;;;;;3.03;2.10;;;;;;;-3.81;62.57;99273.22;5020893;28;20021;-58
2022/01/27 12:19:02;;;;;;;3.78;2.28;;;;;;;-3.66;61.84;99283.78;5020837;28;20061;-59
2022/01/27 12:21:35;;;;;;;3.47;2.15;;;;;;;-3.75;62.22;99255.69;5021340;28;20033;-58
2022/01/27 12:24:14;;;;;;;2.88;2.00;;;;;;;-3.67;61.96;99271.94;5018503;28;20080;-58
2022/01/27 12:26:52;;;;;;;2.58;2.13;;;;;;;-3.70;62.02;99276.91;5019962;28;20103;-59
2022/01/27 12:29:25;;;;;;;4.38;2.03;;;;;;;-4.17;62.06;99203.03;5023303;28;20196;-58
2022/01/27 12:31:52;;;;;;;3.60;2.28;;;;;;;-3.90;63.10;99273.81;5012801;28;20120;-58
2022/01/27 12:34:18;;;;;;;3.50;2.22;;;;;;;-3.94;61.46;99278.75;5023581;28;20025;-57
2022/01/27 12:37:07;;;;;;;3.33;2.35;;;;;;;-3.76;62.68;99260.69;5022376;28;20030;-58
2022/01/27 12:39:44;;;;;;;3.35;2.40;;;;;;;-3.85;61.99;99266.34;5022600;28;20036;-59